Time;durP1;ratioP1;P1;durP2;ratioP2;P2;SDS_P1;SDS_P2;PMS_P1;PMS_P2;Temp;Humidity;BMP_temperature;BMP_pressure;BME280_temperature;BME280_humidity;BME280_pressure;Samples;Min_cycle;Max_cycle;Signal;HPM_P1;HPM_P2
2021/10/24 00:00:48;;;;;;;22.13;18.17;;;7.30;99.90;;;;;;4989679;28;20420;-82
2021/10/24 00:03:14;;;;;;;24.17;19.93;;;7.30;99.90;;;;;;4988454;28;20456;-82
2021/10/24 00:05:39;;;;;;;22.58;19.63;;;7.30;99.90;;;;;;4989640;28;20957;-82
2021/10/24 00:08:06;;;;;;;23.17;19.00;;;7.30;99.90;;;;;;4992590;28;20879;-83
2021/10/24 00:10:31;;;;;;;27.93;19.20;;;7.30;99.90;;;;;;4988126;28;20447;-82
2021/10/24 00:12:57;;;;;;;28.67;20.77;;;7.30;99.90;;;;;;4988287;28;20413;-82
2021/10/24 00:15:23;;;;;;;22.40;17.70;;;7.30;99.90;;;;;;4988282;28;20388;-82
2021/10/24 00:17:48;;;;;;;22.60;17.38;;;7.30;99.90;;;;;;4987971;28;20409;-83
2021/10/24 00:20:14;;;;;;;24.20;19.57;;;7.30;99.90;;;;;;4989828;28;20381;-82
2021/10/24 00:22:40;;;;;;;21.60;18.70;;;7.20;99.90;;;;;;4989338;28;20381;-82
2021/10/24 00:25:06;;;;;;;27.13;19.80;;;7.20;99.90;;;;;;4989290;28;20396;-82
2021/10/24 00:27:32;;;;;;;21.10;17.33;;;7.10;99.90;;;;;;4989515;28;20401;-82
2021/10/24 00:29:58;;;;;;;19.47;16.73;;;7.10;99.90;;;;;;4988352;28;20393;-82
2021/10/24 00:32:23;;;;;;;23.73;18.93;;;7.10;99.90;;;;;;4988731;28;20871;-82
2021/10/24 00:34:49;;;;;;;23.52;18.80;;;7.00;99.90;;;;;;4992860;28;20866;-82
2021/10/24 00:37:14;;;;;;;25.15;18.73;;;7.00;99.90;;;;;;4991614;28;20406;-82
2021/10/24 00:39:40;;;;;;;20.73;16.92;;;7.00;99.90;;;;;;4993443;28;20435;-82
2021/10/24 00:42:06;;;;;;;19.53;15.80;;;6.90;99.90;;;;;;4993105;28;20400;-82
2021/10/24 00:44:33;;;;;;;20.30;16.42;;;6.90;99.90;;;;;;4993162;28;20425;-82
2021/10/24 00:47:01;;;;;;;24.02;18.00;;;6.90;99.90;;;;;;4991732;28;20421;-82
2021/10/24 00:49:27;;;;;;;20.92;16.45;;;6.90;99.90;;;;;;4993323;28;20388;-82
2021/10/24 00:51:54;;;;;;;24.83;18.77;;;6.90;99.90;;;;;;4993156;28;20377;-82
2021/10/24 00:54:22;;;;;;;23.27;17.00;;;6.90;99.90;;;;;;4992250;28;20806;-82
2021/10/24 00:56:50;;;;;;;20.17;16.13;;;6.80;99.90;;;;;;4991684;28;20432;-82
2021/10/24 00:59:16;;;;;;;21.70;17.83;;;6.80;99.90;;;;;;4992091;28;20385;-82
2021/10/24 01:01:43;;;;;;;24.77;18.90;;;6.80;99.90;;;;;;4993169;28;20380;-82
2021/10/24 01:04:08;;;;;;;22.80;17.60;;;6.70;99.90;;;;;;4990783;28;20403;-82
2021/10/24 01:06:36;;;;;;;19.90;16.45;;;6.70;99.90;;;;;;4992504;28;20409;-82
2021/10/24 01:09:06;;;;;;;23.05;18.48;;;6.60;99.90;;;;;;4992957;28;20520;-82
2021/10/24 01:11:31;;;;;;;19.45;15.70;;;6.60;99.90;;;;;;4991071;28;20401;-82
2021/10/24 01:13:57;;;;;;;18.40;15.75;;;6.60;99.90;;;;;;4992540;28;20396;-82
2021/10/24 01:16:23;;;;;;;18.40;16.02;;;6.50;99.90;;;;;;4992376;28;20455;-82
2021/10/24 01:18:49;;;;;;;19.63;15.57;;;6.50;99.90;;;;;;4992749;28;20474;-82
2021/10/24 01:21:16;;;;;;;20.00;16.27;;;6.50;99.90;;;;;;4992553;28;20385;-82
2021/10/24 01:23:42;;;;;;;22.42;16.30;;;6.50;99.90;;;;;;4992465;28;20520;-82
2021/10/24 01:26:08;;;;;;;17.45;15.10;;;6.40;99.90;;;;;;4992433;28;20511;-82
2021/10/24 01:28:34;;;;;;;24.05;17.02;;;6.40;99.90;;;;;;4992430;28;20783;-82
2021/10/24 01:31:00;;;;;;;18.80;15.30;;;6.40;99.90;;;;;;4992181;28;20459;-82
2021/10/24 01:33:27;;;;;;;23.00;18.33;;;6.30;99.90;;;;;;4990704;28;20393;-82
2021/10/24 01:35:55;;;;;;;27.83;17.38;;;6.30;99.90;;;;;;4992433;28;20397;-82
2021/10/24 01:38:22;;;;;;;20.15;16.40;;;6.30;99.90;;;;;;4991821;28;20754;-82
2021/10/24 01:40:48;;;;;;;22.65;18.83;;;6.30;99.90;;;;;;4990548;28;20459;-83
2021/10/24 01:43:14;;;;;;;19.00;15.90;;;6.20;99.90;;;;;;4990559;28;20389;-82
2021/10/24 01:45:40;;;;;;;16.77;14.68;;;6.20;99.90;;;;;;4990922;28;20412;-82
2021/10/24 01:48:05;;;;;;;18.73;15.67;;;6.20;99.90;;;;;;4992499;28;20385;-82
2021/10/24 01:50:31;;;;;;;19.33;15.73;;;6.20;99.90;;;;;;4992051;28;20381;-82
2021/10/24 01:52:57;;;;;;;16.92;13.90;;;6.20;99.90;;;;;;4991751;28;20393;-82
2021/10/24 01:55:23;;;;;;;17.63;14.85;;;6.30;99.90;;;;;;4990870;28;20381;-82
2021/10/24 01:57:51;;;;;;;17.52;14.07;;;6.20;99.90;;;;;;4991792;28;20993;-82
2021/10/24 02:00:17;;;;;;;17.42;13.25;;;6.30;99.90;;;;;;4992030;28;20373;-82
2021/10/24 02:02:43;;;;;;;19.23;15.02;;;6.30;99.90;;;;;;4989855;28;20740;-82
2021/10/24 02:05:09;;;;;;;18.10;14.80;;;6.30;99.90;;;;;;4990331;28;20397;-82
2021/10/24 02:07:35;;;;;;;20.85;15.35;;;6.30;99.90;;;;;;4990030;28;20903;-82
2021/10/24 02:10:02;;;;;;;15.43;13.65;;;6.30;99.90;;;;;;4991860;28;20417;-83
2021/10/24 02:12:28;;;;;;;15.43;13.77;;;6.30;99.90;;;;;;4976361;28;20421;-82
2021/10/24 02:14:54;;;;;;;15.60;13.33;;;6.30;99.90;;;;;;4971071;28;20455;-82
2021/10/24 02:17:19;;;;;;;14.05;12.52;;;6.30;99.90;;;;;;4971866;28;20382;-83
2021/10/24 02:19:45;;;;;;;19.83;14.50;;;6.30;99.90;;;;;;4972555;28;20433;-82
2021/10/24 02:22:11;;;;;;;16.77;12.90;;;6.30;99.90;;;;;;4987653;28;20961;-82
2021/10/24 02:24:37;;;;;;;17.63;13.93;;;6.30;99.90;;;;;;4990495;28;20385;-82
2021/10/24 02:27:03;;;;;;;16.73;14.17;;;6.30;99.90;;;;;;4989131;28;21098;-82
2021/10/24 02:29:28;;;;;;;15.03;13.23;;;6.20;99.90;;;;;;4991507;28;20488;-82
2021/10/24 02:31:54;;;;;;;17.03;12.43;;;6.30;99.90;;;;;;4990520;28;20416;-82
2021/10/24 02:34:19;;;;;;;19.77;13.55;;;6.20;99.90;;;;;;4991460;28;20483;-82
2021/10/24 02:36:45;;;;;;;13.85;11.48;;;6.20;99.90;;;;;;4990519;28;20414;-82
2021/10/24 02:39:11;;;;;;;15.43;12.47;;;6.20;99.90;;;;;;4991208;28;20385;-82
2021/10/24 02:41:36;;;;;;;19.70;13.40;;;6.20;99.90;;;;;;4988888;28;20913;-82
2021/10/24 02:44:02;;;;;;;18.02;12.45;;;6.20;99.90;;;;;;4991250;28;20463;-82
2021/10/24 02:46:27;;;;;;;16.55;12.18;;;6.10;99.90;;;;;;4988762;28;20499;-82
2021/10/24 02:48:53;;;;;;;16.27;11.93;;;6.10;99.90;;;;;;4990868;28;20419;-82
2021/10/24 02:51:18;;;;;;;18.23;13.27;;;6.10;99.90;;;;;;4990646;28;20879;-82
2021/10/24 02:53:44;;;;;;;15.02;11.88;;;6.00;99.90;;;;;;4990938;28;20381;-82
2021/10/24 02:56:10;;;;;;;16.57;12.80;;;6.00;99.90;;;;;;4989446;28;20537;-82
2021/10/24 02:58:35;;;;;;;17.90;12.87;;;5.90;99.90;;;;;;4990947;28;20944;-82
2021/10/24 03:01:01;;;;;;;16.02;11.77;;;5.80;99.90;;;;;;4989439;28;20434;-82
2021/10/24 03:03:26;;;;;;;14.80;11.87;;;5.70;99.90;;;;;;4990882;28;20870;-82
2021/10/24 03:05:52;;;;;;;17.03;12.33;;;5.60;99.90;;;;;;4989911;28;20408;-82
2021/10/24 03:08:17;;;;;;;12.98;10.23;;;5.50;99.90;;;;;;4988791;28;20436;-82
2021/10/24 03:10:43;;;;;;;13.15;11.10;;;5.40;99.90;;;;;;4990475;28;20373;-82
2021/10/24 03:13:09;;;;;;;15.67;11.87;;;5.40;99.90;;;;;;4989323;28;20729;-82
2021/10/24 03:15:34;;;;;;;17.47;12.20;;;5.30;99.90;;;;;;4990251;28;20408;-83
2021/10/24 03:18:00;;;;;;;15.68;12.30;;;5.20;99.90;;;;;;4989094;28;20377;-82
2021/10/24 03:20:25;;;;;;;17.08;12.38;;;5.20;99.90;;;;;;4988539;28;20956;-82
2021/10/24 03:22:51;;;;;;;17.07;12.40;;;5.00;99.90;;;;;;4988973;28;20392;-82
2021/10/24 03:25:17;;;;;;;15.80;11.63;;;5.00;99.90;;;;;;4989801;28;20455;-83
2021/10/24 03:27:42;;;;;;;12.80;10.48;;;4.90;99.90;;;;;;4969268;28;20931;-82
2021/10/24 03:30:08;;;;;;;17.38;12.05;;;4.80;99.90;;;;;;4970860;28;20498;-82
2021/10/24 03:32:34;;;;;;;13.23;11.77;;;4.80;99.90;;;;;;4971545;28;20466;-82
2021/10/24 03:35:00;;;;;;;12.25;10.82;;;4.70;99.90;;;;;;4988644;28;20895;-82
2021/10/24 03:37:26;;;;;;;16.60;12.23;;;4.50;99.90;;;;;;4988728;28;20396;-82
2021/10/24 03:39:51;;;;;;;14.73;12.05;;;4.50;99.90;;;;;;4988803;28;20941;-83
2021/10/24 03:42:17;;;;;;;16.20;11.68;;;4.40;99.90;;;;;;4988420;28;20397;-82
2021/10/24 03:44:43;;;;;;;12.00;10.63;;;4.30;99.90;;;;;;4989361;28;20886;-82
2021/10/24 03:47:09;;;;;;;14.23;10.57;;;4.30;99.90;;;;;;4989756;28;20412;-82
2021/10/24 03:49:34;;;;;;;12.27;10.47;;;4.20;99.90;;;;;;4988575;28;20415;-82
2021/10/24 03:52:00;;;;;;;12.77;10.90;;;4.20;99.90;;;;;;4988983;28;20952;-82
2021/10/24 03:54:26;;;;;;;17.70;12.50;;;4.10;99.90;;;;;;4989535;28;20519;-83
2021/10/24 03:56:52;;;;;;;12.20;10.93;;;4.10;99.90;;;;;;4989631;28;20390;-82
2021/10/24 03:59:17;;;;;;;15.70;11.63;;;4.00;99.90;;;;;;4989869;28;20381;-82
2021/10/24 04:01:43;;;;;;;16.23;11.50;;;4.00;99.90;;;;;;4989113;28;20423;-82
2021/10/24 04:04:08;;;;;;;14.33;11.40;;;3.90;99.90;;;;;;4989832;28;20397;-82
2021/10/24 04:06:34;;;;;;;15.87;11.90;;;3.90;99.90;;;;;;4989431;28;20409;-82
2021/10/24 04:08:59;;;;;;;13.10;10.40;;;3.80;99.90;;;;;;4989554;28;20389;-82
2021/10/24 04:11:25;;;;;;;13.27;10.73;;;3.80;99.90;;;;;;4989022;28;20439;-82
2021/10/24 04:13:50;;;;;;;14.47;11.30;;;3.70;99.90;;;;;;4989146;28;20399;-82
2021/10/24 04:16:16;;;;;;;12.90;10.77;;;3.70;99.90;;;;;;4989413;28;20392;-83
2021/10/24 04:18:42;;;;;;;15.07;11.30;;;3.60;99.90;;;;;;4988962;28;20431;-82
2021/10/24 04:21:07;;;;;;;13.88;10.50;;;3.60;99.90;;;;;;4989015;28;20400;-82
2021/10/24 04:23:33;;;;;;;14.65;11.48;;;3.50;99.90;;;;;;4989317;28;20392;-82
2021/10/24 04:25:59;;;;;;;16.42;11.52;;;3.50;99.90;;;;;;4987919;28;20446;-82
2021/10/24 04:28:25;;;;;;;15.52;11.40;;;3.50;99.90;;;;;;4987530;28;20764;-82
2021/10/24 04:30:51;;;;;;;13.05;9.95;;;3.40;99.90;;;;;;4987576;28;20894;-82
2021/10/24 04:33:16;;;;;;;12.13;10.20;;;3.30;99.90;;;;;;4988198;28;20380;-82
2021/10/24 04:35:42;;;;;;;11.30;9.35;;;3.30;99.90;;;;;;4989419;28;20369;-82
2021/10/24 04:38:08;;;;;;;15.03;9.63;;;3.30;99.90;;;;;;4988146;28;20392;-82
2021/10/24 04:40:33;;;;;;;13.47;9.83;;;3.20;99.90;;;;;;4988997;28;20870;-82
2021/10/24 04:42:59;;;;;;;12.02;8.73;;;3.20;99.90;;;;;;4989057;28;20389;-82
2021/10/24 04:45:24;;;;;;;12.48;9.30;;;3.10;99.90;;;;;;4989124;28;20863;-82
2021/10/24 04:47:50;;;;;;;12.37;9.27;;;3.10;99.90;;;;;;4989367;28;20381;-82
2021/10/24 04:50:16;;;;;;;9.57;8.30;;;3.00;99.90;;;;;;4988853;28;20455;-82
2021/10/24 04:52:41;;;;;;;11.40;8.40;;;3.00;99.90;;;;;;4988017;28;20459;-82
2021/10/24 04:55:07;;;;;;;11.38;8.57;;;3.00;99.90;;;;;;4987420;28;20492;-82
2021/10/24 04:57:33;;;;;;;14.80;10.88;;;2.90;99.90;;;;;;4988822;28;20546;-82
2021/10/24 04:59:59;;;;;;;13.20;9.93;;;3.00;99.90;;;;;;4988907;28;20397;-82
2021/10/24 05:02:25;;;;;;;13.07;9.80;;;2.90;99.90;;;;;;4988690;28;20407;-82
2021/10/24 05:04:51;;;;;;;10.93;8.85;;;2.90;99.90;;;;;;4989013;28;20886;-82
2021/10/24 05:07:17;;;;;;;11.13;8.77;;;2.90;99.90;;;;;;4989067;28;20400;-82
2021/10/24 05:09:43;;;;;;;10.13;8.38;;;2.90;99.90;;;;;;4988760;28;20397;-82
2021/10/24 05:12:08;;;;;;;13.10;8.80;;;2.80;99.90;;;;;;4987150;28;20834;-82
2021/10/24 05:14:34;;;;;;;12.80;9.40;;;2.80;99.90;;;;;;4988634;28;20412;-82
2021/10/24 05:17:00;;;;;;;13.35;9.95;;;2.80;99.90;;;;;;4987301;28;20790;-82
2021/10/24 05:19:26;;;;;;;11.65;8.38;;;2.70;99.90;;;;;;4989395;28;20405;-82
2021/10/24 05:21:51;;;;;;;12.47;9.33;;;2.70;99.90;;;;;;4992651;28;20734;-82
2021/10/24 05:24:17;;;;;;;17.73;9.30;;;2.70;99.90;;;;;;4992159;28;20397;-82
2021/10/24 05:26:44;;;;;;;13.07;9.27;;;2.60;99.90;;;;;;4992307;28;20479;-82
2021/10/24 05:29:10;;;;;;;12.00;9.80;;;2.60;99.90;;;;;;4990945;28;20401;-82
2021/10/24 05:31:35;;;;;;;11.90;8.30;;;2.50;99.90;;;;;;4992197;28;20377;-82
2021/10/24 05:34:01;;;;;;;10.33;8.40;;;2.50;99.90;;;;;;4992054;28;20420;-82
2021/10/24 05:36:26;;;;;;;10.60;8.05;;;2.50;99.90;;;;;;4991874;28;20388;-82
2021/10/24 05:38:52;;;;;;;12.00;7.80;;;2.50;99.90;;;;;;4991712;28;20851;-82
2021/10/24 05:41:18;;;;;;;14.18;9.02;;;2.50;99.90;;;;;;4992325;28;20388;-82
2021/10/24 05:43:43;;;;;;;10.30;8.27;;;2.40;99.90;;;;;;4990640;28;20427;-82
2021/10/24 05:46:09;;;;;;;12.43;8.47;;;2.50;99.90;;;;;;4991672;28;20448;-82
2021/10/24 05:48:35;;;;;;;9.30;8.00;;;2.40;99.90;;;;;;4991966;28;20392;-82
2021/10/24 05:51:00;;;;;;;13.30;8.97;;;2.40;99.90;;;;;;4991493;28;20910;-82
2021/10/24 05:53:26;;;;;;;11.27;9.02;;;2.40;99.90;;;;;;4991649;28;20422;-82
2021/10/24 05:55:52;;;;;;;12.23;9.35;;;2.50;99.90;;;;;;4991798;28;20428;-82
2021/10/24 05:58:17;;;;;;;12.30;8.40;;;2.50;99.90;;;;;;4990188;28;20433;-82
2021/10/24 06:00:44;;;;;;;12.33;8.50;;;2.40;99.90;;;;;;4992006;28;20377;-82
2021/10/24 06:03:10;;;;;;;9.30;7.25;;;2.40;99.90;;;;;;4989719;28;20435;-82
2021/10/24 06:05:36;;;;;;;12.27;7.50;;;2.50;99.90;;;;;;4990341;28;20468;-82
2021/10/24 06:08:03;;;;;;;10.60;7.00;;;2.40;99.90;;;;;;4991364;28;20456;-82
2021/10/24 06:10:38;;;;;;;10.27;7.35;;;2.50;99.90;;;;;;4991365;28;20397;-82
2021/10/24 06:13:06;;;;;;;9.45;6.68;;;2.50;99.90;;;;;;4990105;28;20400;-82
2021/10/24 06:15:33;;;;;;;11.50;7.75;;;2.50;99.90;;;;;;4992269;28;20380;-82
2021/10/24 06:17:58;;;;;;;10.43;7.05;;;2.60;99.90;;;;;;4989909;28;20778;-82
2021/10/24 06:20:24;;;;;;;9.48;7.18;;;2.60;99.90;;;;;;4991564;28;20407;-82
2021/10/24 06:22:50;;;;;;;7.70;6.90;;;2.70;99.90;;;;;;4990065;28;20381;-82
2021/10/24 06:25:17;;;;;;;10.95;8.52;;;2.80;99.90;;;;;;4989879;28;20867;-82
2021/10/24 06:27:43;;;;;;;10.68;7.65;;;2.80;99.90;;;;;;4991170;28;20411;-82
2021/10/24 06:30:11;;;;;;;9.30;8.37;;;2.90;99.90;;;;;;4989570;28;20543;-82
2021/10/24 06:32:38;;;;;;;9.52;8.25;;;3.00;99.90;;;;;;4990187;28;20405;-82
2021/10/24 06:35:05;;;;;;;9.27;7.32;;;3.10;99.90;;;;;;4990583;28;20393;-82
2021/10/24 06:37:43;;;;;;;10.50;7.85;;;3.20;99.90;;;;;;4991201;28;20460;-83
2021/10/24 06:40:10;;;;;;;10.70;7.65;;;3.30;99.90;;;;;;4978540;28;20728;-82
2021/10/24 06:42:37;;;;;;;8.75;7.20;;;3.40;99.90;;;;;;4991097;28;20393;-82
2021/10/24 06:45:04;;;;;;;9.35;7.00;;;3.50;99.90;;;;;;4991155;28;20437;-82
2021/10/24 06:47:30;;;;;;;9.23;7.10;;;3.50;99.90;;;;;;4988914;28;20435;-83
2021/10/24 06:49:55;;;;;;;8.52;6.97;;;3.60;99.90;;;;;;4990993;28;20747;-83
2021/10/24 06:52:21;;;;;;;8.47;6.80;;;3.70;99.90;;;;;;4991159;28;20393;-83
2021/10/24 06:54:47;;;;;;;8.95;7.07;;;3.80;99.90;;;;;;4991301;28;20395;-83
2021/10/24 06:57:12;;;;;;;8.70;6.95;;;3.90;99.90;;;;;;4990560;28;20399;-83
2021/10/24 06:59:42;;;;;;;8.88;6.60;;;3.90;99.90;;;;;;4990852;28;20484;-82
2021/10/24 07:02:10;;;;;;;8.52;7.00;;;4.00;99.90;;;;;;4989958;28;20397;-82
2021/10/24 07:04:39;;;;;;;10.35;7.13;;;4.10;99.90;;;;;;4989102;28;20460;-83
2021/10/24 07:07:05;;;;;;;11.35;7.57;;;4.20;99.90;;;;;;4989343;28;20475;-84
2021/10/24 07:09:32;;;;;;;8.43;7.43;;;4.30;99.90;;;;;;4988900;28;20775;-83
2021/10/24 07:11:59;;;;;;;10.87;6.70;;;4.40;99.90;;;;;;4988824;28;20903;-83
2021/10/24 07:14:25;;;;;;;8.53;6.53;;;4.40;99.90;;;;;;4989192;28;20400;-84
2021/10/24 07:16:51;;;;;;;10.57;6.40;;;4.50;99.90;;;;;;4990201;28;20393;-81
2021/10/24 07:19:17;;;;;;;9.30;7.17;;;4.60;99.90;;;;;;4990370;28;20863;-84
2021/10/24 07:21:44;;;;;;;8.98;7.53;;;4.70;99.90;;;;;;4990167;28;20381;-82
2021/10/24 07:24:10;;;;;;;9.45;7.75;;;4.70;99.90;;;;;;4988323;28;20400;-82
2021/10/24 07:26:36;;;;;;;9.50;7.53;;;4.90;99.90;;;;;;4990530;28;20442;-82
2021/10/24 07:29:01;;;;;;;9.60;7.10;;;5.00;99.90;;;;;;4989784;28;20392;-83
2021/10/24 07:31:28;;;;;;;9.77;6.88;;;5.20;99.90;;;;;;4988848;28;20417;-83
2021/10/24 07:33:53;;;;;;;8.50;6.80;;;5.30;99.90;;;;;;4988543;28;20389;-82
2021/10/24 07:36:19;;;;;;;11.85;8.00;;;5.50;99.90;;;;;;4990275;28;20424;-82
2021/10/24 07:38:45;;;;;;;13.55;9.50;;;5.60;99.90;;;;;;4989021;28;20388;-82
2021/10/24 07:41:12;;;;;;;12.93;9.00;;;5.80;99.90;;;;;;4989973;28;20901;-82
2021/10/24 07:43:39;;;;;;;11.93;9.68;;;6.00;99.90;;;;;;4988892;28;20408;-83
2021/10/24 07:46:05;;;;;;;14.32;10.75;;;6.20;99.90;;;;;;4989364;28;20413;-83
2021/10/24 07:48:30;;;;;;;13.57;10.23;;;6.50;99.90;;;;;;4988367;28;20389;-82
2021/10/24 07:50:56;;;;;;;14.33;10.30;;;6.60;99.90;;;;;;4988064;28;20400;-82
2021/10/24 07:53:26;;;;;;;13.27;9.60;;;6.80;99.90;;;;;;4990646;28;20409;-82
2021/10/24 07:55:56;;;;;;;10.63;9.05;;;6.90;99.90;;;;;;4990394;28;20385;-82
2021/10/24 07:58:23;;;;;;;11.00;8.45;;;7.10;99.90;;;;;;4988544;28;20393;-82
2021/10/24 08:00:49;;;;;;;14.52;9.70;;;7.30;99.90;;;;;;4988478;28;20439;-82
2021/10/24 08:03:15;;;;;;;11.67;8.90;;;7.40;99.90;;;;;;4989149;28;20381;-82
2021/10/24 08:05:41;;;;;;;13.05;9.05;;;7.40;99.90;;;;;;4987386;28;20430;-82
2021/10/24 08:08:06;;;;;;;16.25;8.63;;;7.60;99.90;;;;;;4986915;28;20918;-82
2021/10/24 08:10:32;;;;;;;10.87;8.40;;;7.70;99.90;;;;;;4988436;28;20768;-82
2021/10/24 08:12:58;;;;;;;11.55;8.50;;;7.90;99.90;;;;;;4987064;28;20748;-82
2021/10/24 08:15:23;;;;;;;13.50;8.77;;;8.00;99.90;;;;;;4989413;28;20392;-82
2021/10/24 08:17:49;;;;;;;11.50;8.50;;;8.20;99.90;;;;;;4990343;28;20393;-82
2021/10/24 08:20:16;;;;;;;15.00;8.40;;;8.30;99.90;;;;;;4977516;28;20441;-82
2021/10/24 08:22:42;;;;;;;13.13;8.07;;;8.40;99.90;;;;;;4984990;28;20401;-83
2021/10/24 08:25:08;;;;;;;11.40;7.95;;;8.50;99.90;;;;;;4984366;28;20526;-83
2021/10/24 08:27:34;;;;;;;11.38;7.95;;;8.60;99.90;;;;;;4985004;28;20774;-82
2021/10/24 08:30:03;;;;;;;13.57;8.40;;;8.70;99.90;;;;;;4985885;28;20906;-83
2021/10/24 08:32:29;;;;;;;13.73;8.17;;;8.80;99.90;;;;;;4983252;28;20396;-82
2021/10/24 08:34:54;;;;;;;12.93;7.83;;;8.90;99.90;;;;;;4982441;28;20715;-82
2021/10/24 08:37:20;;;;;;;14.02;7.97;;;9.10;99.90;;;;;;4985376;28;20818;-83
2021/10/24 08:39:52;;;;;;;13.43;7.40;;;9.10;99.90;;;;;;4986479;28;20384;-82
2021/10/24 08:42:25;;;;;;;13.40;7.50;;;9.30;99.90;;;;;;4983129;28;20448;-83
2021/10/24 08:44:53;;;;;;;15.07;7.60;;;9.40;99.90;;;;;;4976167;28;20424;-83
2021/10/24 08:47:19;;;;;;;9.65;6.80;;;9.40;99.90;;;;;;4985724;28;20994;-83
2021/10/24 08:49:45;;;;;;;10.70;6.43;;;9.40;99.90;;;;;;4988654;28;20534;-82
2021/10/24 08:52:12;;;;;;;11.63;6.60;;;9.70;99.90;;;;;;4986639;28;20403;-82
2021/10/24 08:54:42;;;;;;;11.02;6.20;;;9.80;99.90;;;;;;4990156;28;20381;-83
2021/10/24 08:57:07;;;;;;;10.80;6.63;;;10.00;99.90;;;;;;4992653;28;20818;-83
2021/10/24 08:59:33;;;;;;;12.20;6.40;;;10.20;99.90;;;;;;4992443;28;20381;-83
2021/10/24 09:01:59;;;;;;;12.77;5.70;;;10.30;99.90;;;;;;4987825;28;20396;-83
2021/10/24 09:04:24;;;;;;;12.30;6.05;;;10.40;99.90;;;;;;4991202;28;20404;-82
2021/10/24 09:07:02;;;;;;;10.60;5.53;;;10.50;99.90;;;;;;4992596;28;20409;-83
2021/10/24 09:09:35;;;;;;;11.98;6.15;;;10.70;99.90;;;;;;4991510;28;20400;-82
2021/10/24 09:12:06;;;;;;;12.57;6.32;;;10.80;99.90;;;;;;4991802;28;20508;-84
2021/10/24 09:14:52;;;;;;;11.95;5.32;;;10.90;99.90;;;;;;4992513;28;20460;-82
2021/10/24 09:17:27;;;;;;;12.15;6.38;;;11.00;99.90;;;;;;4992437;28;20377;-83
2021/10/24 09:19:56;;;;;;;11.68;5.88;;;11.00;99.90;;;;;;4993005;28;20926;-83
2021/10/24 09:22:30;;;;;;;8.27;5.45;;;11.00;99.90;;;;;;4990577;28;20763;-83
2021/10/24 09:25:12;;;;;;;10.37;5.20;;;11.10;99.90;;;;;;4992666;28;21039;-83
2021/10/24 09:27:47;;;;;;;11.30;5.70;;;11.20;99.90;;;;;;4973269;28;20406;-83
2021/10/24 09:30:37;;;;;;;10.40;5.88;;;11.30;99.90;;;;;;4980447;28;20470;-83
2021/10/24 09:33:10;;;;;;;12.02;6.07;;;11.40;99.90;;;;;;4991883;28;20459;-86
2021/10/24 09:35:39;;;;;;;11.98;5.85;;;11.40;99.90;;;;;;4992157;28;20395;-84
2021/10/24 09:38:07;;;;;;;14.18;6.55;;;11.30;99.90;;;;;;4975155;28;20385;-83
2021/10/24 09:40:57;;;;;;;10.05;5.07;;;11.40;99.90;;;;;;4990623;28;20448;-82
2021/10/24 09:43:24;;;;;;;9.63;4.80;;;11.50;99.90;;;;;;4985634;28;20790;-85
2021/10/24 09:45:57;;;;;;;9.52;4.85;;;11.60;99.90;;;;;;4991737;28;20392;-83
2021/10/24 09:48:25;;;;;;;10.85;5.05;;;11.50;99.90;;;;;;4991987;28;20398;-84
2021/10/24 09:50:53;;;;;;;8.02;4.60;;;11.60;99.90;;;;;;4991478;28;20385;-83
2021/10/24 09:53:23;;;;;;;11.30;4.60;;;11.50;99.90;;;;;;4990954;28;20413;-83
2021/10/24 09:55:55;;;;;;;7.93;4.00;;;11.50;99.90;;;;;;4991619;28;20385;-85
2021/10/24 09:58:21;;;;;;;8.88;4.30;;;11.50;99.90;;;;;;4992930;28;20447;-85
2021/10/24 10:00:47;;;;;;;11.70;4.50;;;11.50;99.90;;;;;;4993514;28;20396;-84
2021/10/24 10:03:18;;;;;;;8.65;3.95;;;11.40;99.90;;;;;;4994253;28;20381;-83
2021/10/24 10:05:44;;;;;;;9.77;4.07;;;11.40;99.90;;;;;;4992537;28;20381;-82
2021/10/24 10:08:11;;;;;;;11.68;4.10;;;11.40;99.90;;;;;;4991062;28;20396;-83
2021/10/24 10:10:49;;;;;;;9.27;4.10;;;11.40;99.90;;;;;;4990334;28;21321;-82
2021/10/24 10:13:21;;;;;;;10.07;4.28;;;11.40;99.90;;;;;;4991144;28;20484;-85
2021/10/24 10:15:49;;;;;;;10.75;3.92;;;11.50;99.90;;;;;;4976219;28;20397;-83
2021/10/24 10:18:15;;;;;;;7.90;3.33;;;11.40;99.90;;;;;;4991578;28;20484;-82
2021/10/24 10:20:46;;;;;;;9.03;3.53;;;11.40;99.90;;;;;;4993039;28;20451;-82
2021/10/24 10:23:15;;;;;;;8.35;3.40;;;11.50;99.90;;;;;;4988752;28;20440;-81
2021/10/24 10:25:43;;;;;;;8.57;3.60;;;11.40;99.90;;;;;;4981565;28;20412;-84
2021/10/24 10:28:35;;;;;;;7.95;3.67;;;11.50;99.90;;;;;;4980161;28;20382;-83
2021/10/24 10:31:16;;;;;;;10.32;3.88;;;11.40;99.90;;;;;;4982322;28;20411;-82
2021/10/24 10:34:00;;;;;;;7.32;3.60;;;11.60;99.90;;;;;;4978465;28;20437;-82
2021/10/24 10:36:44;;;;;;;8.75;3.40;;;11.60;99.90;;;;;;4984816;28;20408;-82
2021/10/24 10:39:31;;;;;;;7.30;3.30;;;11.70;99.90;;;;;;4980488;28;20390;-83
2021/10/24 10:41:59;;;;;;;8.40;3.58;;;11.80;99.90;;;;;;4984778;28;20879;-81
2021/10/24 10:44:28;;;;;;;5.95;2.83;;;11.90;99.90;;;;;;4984830;28;20496;-82
2021/10/24 10:46:54;;;;;;;6.88;2.72;;;11.90;99.90;;;;;;4983473;28;20409;-83
2021/10/24 10:49:25;;;;;;;7.95;3.45;;;11.90;99.90;;;;;;4984740;28;20400;-82
2021/10/24 10:51:51;;;;;;;6.37;2.90;;;11.90;99.90;;;;;;4979448;28;20896;-82
2021/10/24 10:54:17;;;;;;;6.85;3.22;;;11.90;99.90;;;;;;4983766;28;20420;-82
2021/10/24 10:56:49;;;;;;;7.40;3.00;;;12.00;99.90;;;;;;4980631;28;20430;-82
2021/10/24 10:59:29;;;;;;;6.22;2.90;;;12.10;99.90;;;;;;4982509;28;20390;-84
2021/10/24 11:02:15;;;;;;;7.27;3.00;;;12.10;99.90;;;;;;4980263;28;20417;-84
2021/10/24 11:04:50;;;;;;;6.10;2.65;;;12.20;99.90;;;;;;4977749;28;20408;-82
2021/10/24 11:07:46;;;;;;;5.20;2.60;;;12.20;99.90;;;;;;4982960;28;20412;-87
2021/10/24 11:10:36;;;;;;;6.60;2.70;;;12.30;99.90;;;;;;4970288;28;20973;-83
2021/10/24 11:13:02;;;;;;;8.35;3.55;;;12.30;99.90;;;;;;4987103;28;20396;-82
2021/10/24 11:15:29;;;;;;;7.93;3.80;;;12.40;99.90;;;;;;4983503;28;20547;-82
2021/10/24 11:17:58;;;;;;;8.57;4.67;;;12.40;99.90;;;;;;4981528;28;20392;-84
2021/10/24 11:20:29;;;;;;;10.93;4.70;;;12.30;99.90;;;;;;4984893;28;20393;-84
2021/10/24 11:23:03;;;;;;;6.82;3.40;;;12.30;99.90;;;;;;4979290;28;21278;-83
2021/10/24 11:25:33;;;;;;;7.40;2.67;;;12.40;99.90;;;;;;4973160;28;20959;-84
2021/10/24 11:28:14;;;;;;;9.90;3.03;;;12.40;99.90;;;;;;4987963;28;20401;-84
2021/10/24 11:30:41;;;;;;;5.87;2.47;;;12.40;99.90;;;;;;4986806;28;20400;-83
2021/10/24 11:33:08;;;;;;;7.20;3.17;;;12.30;99.90;;;;;;4986517;28;21277;-83
2021/10/24 11:35:35;;;;;;;6.57;2.80;;;12.30;99.90;;;;;;4988538;28;20472;-82
2021/10/24 11:38:08;;;;;;;6.70;2.50;;;12.20;99.90;;;;;;4985722;28;20482;-82
2021/10/24 11:40:58;;;;;;;5.13;2.50;;;12.30;99.90;;;;;;4978014;28;20465;-83
2021/10/24 11:43:42;;;;;;;5.13;2.45;;;12.40;99.90;;;;;;4991132;28;20389;-85
2021/10/24 11:46:29;;;;;;;6.47;2.50;;;12.50;99.90;;;;;;4975507;28;20534;-85
2021/10/24 11:49:09;;;;;;;5.30;2.75;;;12.60;99.90;;;;;;4993712;28;20397;-86
2021/10/24 11:52:02;;;;;;;8.15;2.95;;;12.50;99.90;;;;;;4999134;28;20414;-83
2021/10/24 11:55:17;;;;;;;5.20;2.38;;;12.50;99.90;;;;;;4994014;28;20407;-84
2021/10/24 12:00:57;;;;;;;6.03;2.40;;;12.60;99.90;;;;;;4996938;28;20396;-83
2021/10/24 12:04:07;;;;;;;7.65;2.95;;;12.50;99.90;;;;;;4999009;28;20403;-82
2021/10/24 12:07:11;;;;;;;5.60;2.72;;;12.40;99.90;;;;;;4982678;28;20465;-84
2021/10/24 12:10:02;;;;;;;5.00;2.30;;;12.40;99.90;;;;;;4986825;28;20408;-82
2021/10/24 12:12:55;;;;;;;7.07;2.35;;;12.50;99.90;;;;;;4997416;28;20475;-82
2021/10/24 12:15:57;;;;;;;4.88;2.20;;;12.60;99.90;;;;;;4999350;28;20477;-82
2021/10/24 12:18:33;;;;;;;4.20;1.92;;;12.70;99.90;;;;;;4980135;28;20442;-82
2021/10/24 12:21:01;;;;;;;5.30;1.80;;;12.70;99.90;;;;;;4988074;28;20400;-83
2021/10/24 12:23:29;;;;;;;3.33;1.70;;;12.50;99.90;;;;;;4998275;28;20389;-82
2021/10/24 12:26:00;;;;;;;5.28;2.20;;;12.50;99.90;;;;;;4991636;28;20402;-81
2021/10/24 12:28:36;;;;;;;5.22;2.00;;;12.40;99.90;;;;;;4998432;28;20499;-83
2021/10/24 12:31:11;;;;;;;6.10;2.17;;;12.40;99.90;;;;;;5003060;28;20410;-81
2021/10/24 12:33:42;;;;;;;4.65;2.17;;;12.40;99.90;;;;;;4993298;28;20479;-80
2021/10/24 12:36:10;;;;;;;7.63;2.95;;;12.40;99.90;;;;;;5005143;28;20384;-83
2021/10/24 12:39:08;;;;;;;5.50;2.90;;;12.50;99.90;;;;;;4996952;28;20383;-82
2021/10/24 12:41:44;;;;;;;5.72;1.98;;;12.50;99.90;;;;;;5005535;28;20422;-82
2021/10/24 12:44:11;;;;;;;6.63;2.10;;;12.60;99.90;;;;;;4991868;28;20403;-80
2021/10/24 12:46:39;;;;;;;5.00;2.13;;;12.50;99.90;;;;;;4998625;28;20877;-83
2021/10/24 12:49:15;;;;;;;5.00;1.80;;;12.30;99.90;;;;;;4989595;28;20392;-83
2021/10/24 12:51:44;;;;;;;3.57;1.80;;;12.40;99.90;;;;;;5003680;28;20445;-82
2021/10/24 12:54:11;;;;;;;5.28;2.20;;;12.30;99.90;;;;;;4992763;28;20403;-82